Time;durP1;ratioP1;P1;durP2;ratioP2;P2;SDS_P1;SDS_P2;PMS_P1;PMS_P2;Temp;Humidity;BMP_temperature;BMP_pressure;BME280_temperature;BME280_humidity;BME280_pressure;Samples;Min_cycle;Max_cycle;Signal;HPM_P1;HPM_P2
2021/03/24 00:01:46;;;;;;;;;;;;;;;;;;4976462;28;20393;-45
2021/03/24 00:04:12;;;;;;;;;;;;;;;;;;4984956;28;19975;-46
2021/03/24 00:06:38;;;;;;;;;;;;;;;;;;4969660;28;19961;-45
2021/03/24 00:09:04;;;;;;;;;;;;;;;;;;4974380;28;19915;-45
2021/03/24 00:11:29;;;;;;;;;;;;;;;;;;4966510;28;19910;-45
2021/03/24 00:13:55;;;;;;;;;;;;;;;;;;4978215;28;20340;-45
2021/03/24 00:16:21;;;;;;;;;;;;;;;;;;4965132;28;19968;-45
2021/03/24 00:18:47;;;;;;;;;;;;;;;;;;4967763;28;20357;-46
2021/03/24 00:21:13;;;;;;;;;;;;;;;;;;4972856;28;19915;-46
2021/03/24 00:23:39;;;;;;;;;;;;;;;;;;4965968;28;19929;-46
2021/03/24 00:26:05;;;;;;;;;;;;;;;;;;4973801;28;20441;-45
2021/03/24 00:28:31;;;;;;;;;;;;;;;;;;4971566;28;19993;-45
2021/03/24 00:30:57;;;;;;;;;;;;;;;;;;4966149;28;20471;-45
2021/03/24 00:33:22;;;;;;;;;;;;;;;;;;4996185;28;19919;-45
2021/03/24 00:35:48;;;;;;;;;;;;;;;;;;4988345;28;19921;-43
2021/03/24 00:38:14;;;;;;;;;;;;;;;;;;4968506;28;19950;-46
2021/03/24 00:40:40;;;;;;;;;;;;;;;;;;4969854;28;19950;-45
2021/03/24 00:43:06;;;;;;;;;;;;;;;;;;4967609;28;19929;-45
2021/03/24 00:45:32;;;;;;;;;;;;;;;;;;5000100;28;20445;-45
2021/03/24 00:47:58;;;;;;;;;;;;;;;;;;4983205;28;19974;-45
2021/03/24 00:50:24;;;;;;;;;;;;;;;;;;4967751;28;20390;-45
2021/03/24 00:52:49;;;;;;;;;;;;;;;;;;4964501;28;19953;-46
2021/03/24 00:55:15;;;;;;;;;;;;;;;;;;4984792;28;20017;-46
2021/03/24 00:57:41;;;;;;;;;;;;;;;;;;5000084;28;19942;-45
2021/03/24 01:00:07;;;;;;;;;;;;;;;;;;4969575;28;19914;-45
2021/03/24 01:02:33;;;;;;;;;;;;;;;;;;4967862;28;19914;-45
2021/03/24 01:04:59;;;;;;;;;;;;;;;;;;4965324;28;19918;-46
2021/03/24 01:07:25;;;;;;;;;;;;;;;;;;4972456;28;19925;-46
2021/03/24 01:09:51;;;;;;;;;;;;;;;;;;4969615;28;19914;-45
2021/03/24 01:12:17;;;;;;;;;;;;;;;;;;4970865;28;19960;-45
2021/03/24 01:14:42;;;;;;;;;;;;;;;;;;4966765;28;19914;-46
2021/03/24 01:17:09;;;;;;;;;;;;;;;;;;4969290;28;19922;-45
2021/03/24 01:19:34;;;;;;;;;;;;;;;;;;4971593;28;20423;-45
2021/03/24 01:22:00;;;;;;;;;;;;;;;;;;4994956;28;20003;-45
2021/03/24 01:24:26;;;;;;;;;;;;;;;;;;4972099;28;19924;-45
2021/03/24 01:26:52;;;;;;;;;;;;;;;;;;4967459;28;20222;-46
2021/03/24 01:29:18;;;;;;;;;;;;;;;;;;4970274;28;19915;-45
2021/03/24 01:31:44;;;;;;;;;;;;;;;;;;4967216;28;19914;-46
2021/03/24 01:34:10;;;;;;;;;;;;;;;;;;4971828;28;20438;-44
2021/03/24 01:36:36;;;;;;;;;;;;;;;;;;4966379;28;20040;-46
2021/03/24 01:39:01;;;;;;;;;;;;;;;;;;5011247;28;20386;-48
2021/03/24 01:41:27;;;;;;;;;;;;;;;;;;4966612;28;19914;-47
2021/03/24 01:43:53;;;;;;;;;;;;;;;;;;4967089;28;19945;-46
2021/03/24 01:46:19;;;;;;;;;;;;;;;;;;4986769;28;19948;-46
2021/03/24 01:48:45;;;;;;;;;;;;;;;;;;4971537;28;19914;-46
2021/03/24 01:51:11;;;;;;;;;;;;;;;;;;4966795;28;20015;-46
2021/03/24 01:53:37;;;;;;;;;;;;;;;;;;4973620;28;19922;-46
2021/03/24 01:56:03;;;;;;;;;;;;;;;;;;5015231;28;20325;-46
2021/03/24 01:58:29;;;;;;;;;;;;;;;;;;4971279;28;19921;-46
2021/03/24 02:00:55;;;;;;;;;;;;;;;;;;4964731;28;19963;-45
2021/03/24 02:03:20;;;;;;;;;;;;;;;;;;4972857;28;19950;-46
2021/03/24 02:05:46;;;;;;;;;;;;;;;;;;4978945;28;19914;-47
2021/03/24 02:08:12;;;;;;;;;;;;;;;;;;5008474;28;19988;-44
2021/03/24 02:10:38;;;;;;;;;;;;;;;;;;4978302;28;19913;-45
2021/03/24 02:13:04;;;;;;;;;;;;;;;;;;4964645;28;20008;-45
2021/03/24 02:15:30;;;;;;;;;;;;;;;;;;4974739;28;19917;-46
2021/03/24 02:17:56;;;;;;;;;;;;;;;;;;4965826;28;19918;-46
2021/03/24 02:20:22;;;;;;;;;;;;;;;;;;4963933;28;19920;-46
2021/03/24 02:22:48;;;;;;;;;;;;;;;;;;4971027;28;20006;-49
2021/03/24 02:25:13;;;;;;;;;;;;;;;;;;5017863;28;19921;-47
2021/03/24 02:27:39;;;;;;;;;;;;;;;;;;4966252;28;19914;-48
2021/03/24 02:30:05;;;;;;;;;;;;;;;;;;4981747;28;19912;-45
2021/03/24 02:32:31;;;;;;;;;;;;;;;;;;4993680;28;20333;-49
2021/03/24 02:34:57;;;;;;;;;;;;;;;;;;4970113;28;19910;-48
2021/03/24 02:37:23;;;;;;;;;;;;;;;;;;4964434;28;19954;-48
2021/03/24 02:39:49;;;;;;;;;;;;;;;;;;4971897;28;20425;-44
2021/03/24 02:42:15;;;;;;;;;;;;;;;;;;4970345;28;19918;-45
2021/03/24 02:44:40;;;;;;;;;;;;;;;;;;4968187;28;20240;-45
2021/03/24 02:47:06;;;;;;;;;;;;;;;;;;4971860;28;20371;-46
2021/03/24 02:49:32;;;;;;;;;;;;;;;;;;4964328;28;19914;-45
2021/03/24 02:51:58;;;;;;;;;;;;;;;;;;5048806;28;20363;-46
2021/03/24 02:54:24;;;;;;;;;;;;;;;;;;4985327;28;20115;-45
2021/03/24 02:56:50;;;;;;;;;;;;;;;;;;4986228;28;20383;-45
2021/03/24 02:59:16;;;;;;;;;;;;;;;;;;4970054;28;19918;-46
2021/03/24 03:01:42;;;;;;;;;;;;;;;;;;4963503;28;19921;-46
2021/03/24 03:04:08;;;;;;;;;;;;;;;;;;4980029;28;19926;-47
2021/03/24 03:06:34;;;;;;;;;;;;;;;;;;4965617;28;19914;-46
2021/03/24 03:09:00;;;;;;;;;;;;;;;;;;4963842;28;19914;-45
2021/03/24 03:11:26;;;;;;;;;;;;;;;;;;4998372;28;19987;-45
2021/03/24 03:13:51;;;;;;;;;;;;;;;;;;4963321;28;19921;-46
2021/03/24 03:16:17;;;;;;;;;;;;;;;;;;4976461;28;20031;-45
2021/03/24 03:18:43;;;;;;;;;;;;;;;;;;4970599;28;19965;-47
2021/03/24 03:21:09;;;;;;;;;;;;;;;;;;4964670;28;19922;-46
2021/03/24 03:23:35;;;;;;;;;;;;;;;;;;5015302;28;20003;-45
2021/03/24 03:26:01;;;;;;;;;;;;;;;;;;4964568;28;19915;-44
2021/03/24 03:28:27;;;;;;;;;;;;;;;;;;4972043;28;19918;-44
2021/03/24 03:30:53;;;;;;;;;;;;;;;;;;4990943;28;20005;-44
2021/03/24 03:33:18;;;;;;;;;;;;;;;;;;4965214;28;19914;-43
2021/03/24 03:35:44;;;;;;;;;;;;;;;;;;5011412;28;19918;-47
2021/03/24 03:38:10;;;;;;;;;;;;;;;;;;4964531;28;20169;-46
2021/03/24 03:40:36;;;;;;;;;;;;;;;;;;4967631;28;19910;-45
2021/03/24 03:43:02;;;;;;;;;;;;;;;;;;4969333;28;20013;-44
2021/03/24 03:45:28;;;;;;;;;;;;;;;;;;4987268;28;20415;-45
2021/03/24 03:47:54;;;;;;;;;;;;;;;;;;5010776;28;19917;-46
2021/03/24 03:50:20;;;;;;;;;;;;;;;;;;4966747;28;19984;-44
2021/03/24 03:52:46;;;;;;;;;;;;;;;;;;5028669;28;19952;-46
2021/03/24 03:55:12;;;;;;;;;;;;;;;;;;4966378;28;20023;-45
2021/03/24 03:57:38;;;;;;;;;;;;;;;;;;4969747;28;20017;-45
2021/03/24 04:00:03;;;;;;;;;;;;;;;;;;4967647;28;19922;-47
2021/03/24 04:02:29;;;;;;;;;;;;;;;;;;4968720;28;19930;-49
2021/03/24 04:04:56;;;;;;;;;;;;;;;;;;4966590;28;20005;-53
2021/03/24 04:07:21;;;;;;;;;;;;;;;;;;4977537;28;19910;-48
2021/03/24 04:09:47;;;;;;;;;;;;;;;;;;4982132;28;19959;-47
2021/03/24 04:12:13;;;;;;;;;;;;;;;;;;4965403;28;20299;-51
2021/03/24 04:14:39;;;;;;;;;;;;;;;;;;4991917;28;19915;-45
2021/03/24 04:17:05;;;;;;;;;;;;;;;;;;4969875;28;19937;-45
2021/03/24 04:19:31;;;;;;;;;;;;;;;;;;4965071;28;19910;-45
2021/03/24 04:21:57;;;;;;;;;;;;;;;;;;4966835;28;19914;-46
2021/03/24 04:24:23;;;;;;;;;;;;;;;;;;5028468;28;20008;-45
2021/03/24 04:26:49;;;;;;;;;;;;;;;;;;4970594;28;19922;-47
2021/03/24 04:29:15;;;;;;;;;;;;;;;;;;4964737;28;19911;-45
2021/03/24 04:31:41;;;;;;;;;;;;;;;;;;5018599;28;19922;-44
2021/03/24 04:34:06;;;;;;;;;;;;;;;;;;4966094;28;19933;-45
2021/03/24 04:36:32;;;;;;;;;;;;;;;;;;4967224;28;20044;-46
2021/03/24 04:38:58;;;;;;;;;;;;;;;;;;4971511;28;20217;-44
2021/03/24 04:41:24;;;;;;;;;;;;;;;;;;4971161;28;19964;-44
2021/03/24 04:43:50;;;;;;;;;;;;;;;;;;4968958;28;19922;-47
2021/03/24 04:46:16;;;;;;;;;;;;;;;;;;4969009;28;19957;-44
2021/03/24 04:48:42;;;;;;;;;;;;;;;;;;4972901;28;19910;-45
2021/03/24 04:51:08;;;;;;;;;;;;;;;;;;4967116;28;19914;-45
2021/03/24 04:53:34;;;;;;;;;;;;;;;;;;5017834;28;19917;-45
2021/03/24 04:56:00;;;;;;;;;;;;;;;;;;4967592;28;20272;-45
2021/03/24 04:58:26;;;;;;;;;;;;;;;;;;4971024;28;19914;-45
2021/03/24 05:00:52;;;;;;;;;;;;;;;;;;4966499;28;20513;-44
2021/03/24 05:03:18;;;;;;;;;;;;;;;;;;4980665;28;19929;-45
2021/03/24 05:05:44;;;;;;;;;;;;;;;;;;4970426;28;19918;-46
2021/03/24 05:08:10;;;;;;;;;;;;;;;;;;4966708;28;20291;-45
2021/03/24 05:10:35;;;;;;;;;;;;;;;;;;4969689;28;19983;-47
2021/03/24 05:13:01;;;;;;;;;;;;;;;;;;4966108;28;20547;-46
2021/03/24 05:15:27;;;;;;;;;;;;;;;;;;4967122;28;19915;-46
2021/03/24 05:17:53;;;;;;;;;;;;;;;;;;4970985;28;19933;-46
2021/03/24 05:20:19;;;;;;;;;;;;;;;;;;4967253;28;19918;-50
2021/03/24 05:22:45;;;;;;;;;;;;;;;;;;4995476;28;19925;-47
2021/03/24 05:25:11;;;;;;;;;;;;;;;;;;4996771;28;19918;-46
2021/03/24 05:27:37;;;;;;;;;;;;;;;;;;4988246;28;20133;-47
2021/03/24 05:30:02;;;;;;;;;;;;;;;;;;4971844;28;19914;-46
2021/03/24 05:32:28;;;;;;;;;;;;;;;;;;4966224;28;19980;-46
2021/03/24 05:34:54;;;;;;;;;;;;;;;;;;4999016;28;19953;-46
2021/03/24 05:37:20;;;;;;;;;;;;;;;;;;4974964;28;20303;-46
2021/03/24 05:39:46;;;;;;;;;;;;;;;;;;5011893;28;19993;-47
2021/03/24 05:42:12;;;;;;;;;;;;;;;;;;4967192;28;19918;-47
2021/03/24 05:44:38;;;;;;;;;;;;;;;;;;4966152;28;19925;-47
2021/03/24 05:47:04;;;;;;;;;;;;;;;;;;4993949;28;20013;-46
2021/03/24 05:49:30;;;;;;;;;;;;;;;;;;4970599;28;19922;-47
2021/03/24 05:51:55;;;;;;;;;;;;;;;;;;4965622;28;19914;-47
2021/03/24 05:54:21;;;;;;;;;;;;;;;;;;4968332;28;19946;-47
2021/03/24 05:56:47;;;;;;;;;;;;;;;;;;4969749;28;19921;-46
2021/03/24 05:59:13;;;;;;;;;;;;;;;;;;4967338;28;20379;-47
2021/03/24 06:01:39;;;;;;;;;;;;;;;;;;4969671;28;20021;-47
2021/03/24 06:04:05;;;;;;;;;;;;;;;;;;4967728;28;20015;-47
2021/03/24 06:06:31;;;;;;;;;;;;;;;;;;4968556;28;19919;-46
2021/03/24 06:08:57;;;;;;;;;;;;;;;;;;4964074;28;20283;-45
2021/03/24 06:11:22;;;;;;;;;;;;;;;;;;4970278;28;19948;-46
2021/03/24 06:13:48;;;;;;;;;;;;;;;;;;4967331;28;19914;-45
2021/03/24 06:16:14;;;;;;;;;;;;;;;;;;4964366;28;19914;-60
2021/03/24 06:18:40;;;;;;;;;;;;;;;;;;4962074;28;20279;-60
2021/03/24 06:21:06;;;;;;;;;;;;;;;;;;4962701;28;19975;-61
2021/03/24 06:23:32;;;;;;;;;;;;;;;;;;4978639;28;19922;-60
2021/03/24 06:25:58;;;;;;;;;;;;;;;;;;4983504;28;20381;-47
2021/03/24 06:28:24;;;;;;;;;;;;;;;;;;4978453;28;20014;-48
2021/03/24 06:30:50;;;;;;;;;;;;;;;;;;4985536;28;19918;-47
2021/03/24 06:33:16;;;;;;;;;;;;;;;;;;5064870;28;19912;-48
2021/03/24 06:35:41;;;;;;;;;;;;;;;;;;4966341;28;20399;-51
2021/03/24 06:38:07;;;;;;;;;;;;;;;;;;4970597;28;19917;-48
2021/03/24 06:40:33;;;;;;;;;;;;;;;;;;4965066;28;19937;-48
2021/03/24 06:42:59;;;;;;;;;;;;;;;;;;5015319;28;19931;-47
2021/03/24 06:45:25;;;;;;;;;;;;;;;;;;4968897;28;19914;-61
2021/03/24 06:47:51;;;;;;;;;;;;;;;;;;4971653;28;19956;-61
2021/03/24 06:50:17;;;;;;;;;;;;;;;;;;4970634;28;19914;-46
2021/03/24 06:52:43;;;;;;;;;;;;;;;;;;4968712;28;19917;-47
2021/03/24 06:55:09;;;;;;;;;;;;;;;;;;4964957;28;19918;-47
2021/03/24 06:57:34;;;;;;;;;;;;;;;;;;4964423;28;19914;-48
2021/03/24 07:00:00;;;;;;;;;;;;;;;;;;4967930;28;19990;-47
2021/03/24 07:02:26;;;;;;;;;;;;;;;;;;4986351;28;19916;-48
2021/03/24 07:04:52;;;;;;;;;;;;;;;;;;4970136;28;19918;-48
2021/03/24 07:07:18;;;;;;;;;;;;;;;;;;4963695;28;19972;-48
2021/03/24 07:09:44;;;;;;;;;;;;;;;;;;4969557;28;19917;-47
2021/03/24 07:12:10;;;;;;;;;;;;;;;;;;4963038;28;19922;-47
2021/03/24 07:14:36;;;;;;;;;;;;;;;;;;4967019;28;19914;-48
2021/03/24 07:17:02;;;;;;;;;;;;;;;;;;4970195;28;20005;-47
2021/03/24 07:19:28;;;;;;;;;;;;;;;;;;4964978;28;19918;-48
2021/03/24 07:21:54;;;;;;;;;;;;;;;;;;4963175;28;19914;-46
2021/03/24 07:24:19;;;;;;;;;;;;;;;;;;5022327;28;19932;-46
2021/03/24 07:26:45;;;;;;;;;;;;;;;;;;4969616;28;19925;-46
2021/03/24 07:29:11;;;;;;;;;;;;;;;;;;4970447;28;20012;-46
2021/03/24 07:31:37;;;;;;;;;;;;;;;;;;4964895;28;19968;-47
2021/03/24 07:34:03;;;;;;;;;;;;;;;;;;4963311;28;19914;-46
2021/03/24 07:36:29;;;;;;;;;;;;;;;;;;5018076;28;19937;-46
2021/03/24 07:38:55;;;;;;;;;;;;;;;;;;4969347;28;19918;-46
2021/03/24 07:41:21;;;;;;;;;;;;;;;;;;4969449;28;19949;-45
2021/03/24 07:43:47;;;;;;;;;;;;;;;;;;5064398;28;20263;-47
2021/03/24 07:46:13;;;;;;;;;;;;;;;;;;4984409;28;19915;-47
2021/03/24 07:48:39;;;;;;;;;;;;;;;;;;4965323;28;19917;-46
2021/03/24 07:51:04;;;;;;;;;;;;;;;;;;4969775;28;19960;-45
2021/03/24 07:53:30;;;;;;;;;;;;;;;;;;4961572;28;19922;-45
2021/03/24 07:55:56;;;;;;;;;;;;;;;;;;4990873;28;19910;-45
2021/03/24 07:58:22;;;;;;;;;;;;;;;;;;4968100;28;19922;-45
2021/03/24 08:00:48;;;;;;;;;;;;;;;;;;4965138;28;19921;-46
2021/03/24 08:03:14;;;;;;;;;;;;;;;;;;4969694;28;19969;-46
2021/03/24 08:05:40;;;;;;;;;;;;;;;;;;4969531;28;19967;-46
2021/03/24 08:08:06;;;;;;;;;;;;;;;;;;4965884;28;20480;-43
2021/03/24 08:10:32;;;;;;;;;;;;;;;;;;4969110;28;19920;-44
2021/03/24 08:12:58;;;;;;;;;;;;;;;;;;4996846;28;20292;-45
2021/03/24 08:15:24;;;;;;;;;;;;;;;;;;4964813;28;20387;-46
2021/03/24 08:17:50;;;;;;;;;;;;;;;;;;4962102;28;19925;-48
2021/03/24 08:20:15;;;;;;;;;;;;;;;;;;4964713;28;19910;-46
2021/03/24 08:22:41;;;;;;;;;;;;;;;;;;4963624;28;20311;-45
2021/03/24 08:25:07;;;;;;;;;;;;;;;;;;4963567;28;20303;-45
2021/03/24 08:27:33;;;;;;;;;;;;;;;;;;4991943;28;19914;-45
2021/03/24 08:29:59;;;;;;;;;;;;;;;;;;4969326;28;19922;-59
2021/03/24 08:32:25;;;;;;;;;;;;;;;;;;4967499;28;19915;-58
2021/03/24 08:34:51;;;;;;;;;;;;;;;;;;4972083;28;19959;-58
2021/03/24 08:37:17;;;;;;;;;;;;;;;;;;4967721;28;20335;-58
2021/03/24 08:39:43;;;;;;;;;;;;;;;;;;4977561;28;19918;-57
2021/03/24 08:42:09;;;;;;;;;;;;;;;;;;4968257;28;20321;-57
2021/03/24 08:44:35;;;;;;;;;;;;;;;;;;4989697;28;19916;-57
2021/03/24 08:47:01;;;;;;;;;;;;;;;;;;4971643;28;19914;-58
2021/03/24 08:49:26;;;;;;;;;;;;;;;;;;4966859;28;20386;-58
2021/03/24 08:51:55;;;;;;;;;;;;;;;;;;4973065;28;20001;-58
2021/03/24 08:54:21;;;;;;;;;;;;;;;;;;4964225;28;20375;-58
2021/03/24 08:56:47;;;;;;;;;;;;;;;;;;4971490;28;19964;-46
2021/03/24 08:59:13;;;;;;;;;;;;;;;;;;4971119;28;20011;-46
2021/03/24 09:01:39;;;;;;;;;;;;;;;;;;4967037;28;19914;-47
2021/03/24 09:04:05;;;;;;;;;;;;;;;;;;4972530;28;19922;-46
2021/03/24 09:06:31;;;;;;;;;;;;;;;;;;4965255;28;19914;-46
2021/03/24 09:08:56;;;;;;;;;;;;;;;;;;4966176;28;19914;-48
2021/03/24 09:11:22;;;;;;;;;;;;;;;;;;4964955;28;19914;-46
2021/03/24 09:13:48;;;;;;;;;;;;;;;;;;4965260;28;19975;-46
2021/03/24 09:16:14;;;;;;;;;;;;;;;;;;4971325;28;20394;-47
2021/03/24 09:18:40;;;;;;;;;;;;;;;;;;4966501;28;19953;-43
2021/03/24 09:21:06;;;;;;;;;;;;;;;;;;5023288;28;19953;-44
2021/03/24 09:23:32;;;;;;;;;;;;;;;;;;4971605;28;19922;-44
2021/03/24 09:25:58;;;;;;;;;;;;;;;;;;4966847;28;19914;-44
2021/03/24 09:28:24;;;;;;;;;;;;;;;;;;4971488;28;20209;-44
2021/03/24 09:30:50;;;;;;;;;;;;;;;;;;4966405;28;19918;-44
2021/03/24 09:33:16;;;;;;;;;;;;;;;;;;5021226;28;20409;-44
2021/03/24 09:35:42;;;;;;;;;;;;;;;;;;4977045;28;20027;-43
2021/03/24 09:38:08;;;;;;;;;;;;;;;;;;4966098;28;19971;-58
2021/03/24 09:40:34;;;;;;;;;;;;;;;;;;4996410;28;20588;-56
2021/03/24 09:43:00;;;;;;;;;;;;;;;;;;5022491;28;19926;-53
2021/03/24 09:45:26;;;;;;;;;;;;;;;;;;4979169;28;20053;-55
2021/03/24 09:47:51;;;;;;;;;;;;;;;;;;4966845;28;19914;-55
2021/03/24 09:50:17;;;;;;;;;;;;;;;;;;4966528;28;19915;-56
2021/03/24 09:52:43;;;;;;;;;;;;;;;;;;4971861;28;19914;-56
2021/03/24 09:55:09;;;;;;;;;;;;;;;;;;4965341;28;19922;-55
2021/03/24 09:57:35;;;;;;;;;;;;;;;;;;4970883;28;19910;-54
2021/03/24 10:00:01;;;;;;;;;;;;;;;;;;4970947;28;19943;-56
2021/03/24 10:02:27;;;;;;;;;;;;;;;;;;4965260;28;19914;-55
2021/03/24 10:04:53;;;;;;;;;;;;;;;;;;4972824;28;19921;-56
2021/03/24 10:07:20;;;;;;;;;;;;;;;;;;4965368;28;19941;-55
2021/03/24 10:09:46;;;;;;;;;;;;;;;;;;5010041;28;19910;-55
2021/03/24 10:12:12;;;;;;;;;;;;;;;;;;4970291;28;19930;-56
2021/03/24 10:14:38;;;;;;;;;;;;;;;;;;4964496;28;19918;-52
2021/03/24 10:17:04;;;;;;;;;;;;;;;;;;4970961;28;19949;-55
2021/03/24 10:19:31;;;;;;;;;;;;;;;;;;4966168;28;19933;-52
2021/03/24 10:21:57;;;;;;;;;;;;;;;;;;4962776;28;20325;-56
2021/03/24 10:24:23;;;;;;;;;;;;;;;;;;4970473;28;19922;-58
2021/03/24 10:26:49;;;;;;;;;;;;;;;;;;4975834;28;20046;-53
2021/03/24 10:29:15;;;;;;;;;;;;;;;;;;4973061;28;20272;-57
2021/03/24 10:31:41;;;;;;;;;;;;;;;;;;4963934;28;19976;-59
2021/03/24 10:34:07;;;;;;;;;;;;;;;;;;4963941;28;19922;-56
2021/03/24 10:36:33;;;;;;;;;;;;;;;;;;4970559;28;19911;-59
2021/03/24 10:38:59;;;;;;;;;;;;;;;;;;4973990;28;19921;-45
2021/03/24 10:41:25;;;;;;;;;;;;;;;;;;4964878;28;19992;-44
2021/03/24 10:43:51;;;;;;;;;;;;;;;;;;4964302;28;19923;-44
2021/03/24 10:46:17;;;;;;;;;;;;;;;;;;4967991;28;20371;-45
2021/03/24 10:48:42;;;;;;;;;;;;;;;;;;4967168;28;19911;-44
2021/03/24 10:51:08;;;;;;;;;;;;;;;;;;4967886;28;20387;-45
2021/03/24 10:53:35;;;;;;;;;;;;;;;;;;4964796;28;20294;-45
2021/03/24 10:56:01;;;;;;;;;;;;;;;;;;4965042;28;19914;-48
2021/03/24 10:58:30;;;;;;;;;;;;;;;;;;5043987;28;19914;-67
2021/03/24 11:00:55;;;;;;;;;;;;;;;;;;4971129;28;19914;-51
